sensor_id;sensor_type;location;lat;lon;timestamp;P1;durP1;ratioP1;P2;durP2;ratioP2
2912;SDS011;1466;48.778;9.166;2022-07-29T00:00:41;13.77;;;8.53;;
2912;SDS011;1466;48.778;9.166;2022-07-29T00:03:09;15.20;;;9.63;;
2912;SDS011;1466;48.778;9.166;2022-07-29T00:05:35;14.53;;;8.90;;
2912;SDS011;1466;48.778;9.166;2022-07-29T00:08:02;20.00;;;10.07;;
2912;SDS011;1466;48.778;9.166;2022-07-29T00:10:28;19.43;;;9.60;;
2912;SDS011;1466;48.778;9.166;2022-07-29T00:12:54;12.63;;;8.70;;
2912;SDS011;1466;48.778;9.166;2022-07-29T00:15:19;16.90;;;9.10;;
2912;SDS011;1466;48.778;9.166;2022-07-29T00:17:45;15.37;;;9.73;;
2912;SDS011;1466;48.778;9.166;2022-07-29T00:20:11;21.70;;;10.37;;
2912;SDS011;1466;48.778;9.166;2022-07-29T00:22:37;12.47;;;9.07;;
2912;SDS011;1466;48.778;9.166;2022-07-29T00:25:03;16.93;;;9.83;;
2912;SDS011;1466;48.778;9.166;2022-07-29T00:27:29;24.23;;;10.57;;
2912;SDS011;1466;48.778;9.166;2022-07-29T00:29:55;14.50;;;9.73;;
2912;SDS011;1466;48.778;9.166;2022-07-29T00:32:20;16.20;;;10.73;;
2912;SDS011;1466;48.778;9.166;2022-07-29T00:34:46;15.77;;;9.40;;
2912;SDS011;1466;48.778;9.166;2022-07-29T00:37:30;15.87;;;9.77;;
2912;SDS011;1466;48.778;9.166;2022-07-29T00:39:55;16.93;;;9.43;;
2912;SDS011;1466;48.778;9.166;2022-07-29T00:42:21;22.37;;;10.50;;
2912;SDS011;1466;48.778;9.166;2022-07-29T00:44:47;15.73;;;8.83;;
2912;SDS011;1466;48.778;9.166;2022-07-29T00:47:12;15.73;;;9.43;;
2912;SDS011;1466;48.778;9.166;2022-07-29T00:49:39;13.60;;;8.97;;
2912;SDS011;1466;48.778;9.166;2022-07-29T00:52:06;18.07;;;10.00;;
2912;SDS011;1466;48.778;9.166;2022-07-29T00:54:33;14.13;;;9.00;;
2912;SDS011;1466;48.778;9.166;2022-07-29T00:57:00;14.73;;;9.07;;
2912;SDS011;1466;48.778;9.166;2022-07-29T00:59:26;13.57;;;8.50;;
2912;SDS011;1466;48.778;9.166;2022-07-29T01:01:52;12.90;;;8.90;;
2912;SDS011;1466;48.778;9.166;2022-07-29T01:04:19;12.47;;;8.40;;
2912;SDS011;1466;48.778;9.166;2022-07-29T01:06:46;14.30;;;8.50;;
2912;SDS011;1466;48.778;9.166;2022-07-29T01:09:13;20.00;;;10.33;;
2912;SDS011;1466;48.778;9.166;2022-07-29T01:11:40;19.73;;;9.60;;
2912;SDS011;1466;48.778;9.166;2022-07-29T01:14:08;13.43;;;8.90;;
2912;SDS011;1466;48.778;9.166;2022-07-29T01:16:39;21.40;;;10.60;;
2912;SDS011;1466;48.778;9.166;2022-07-29T01:19:23;14.13;;;9.07;;
2912;SDS011;1466;48.778;9.166;2022-07-29T01:22:02;23.83;;;10.27;;
2912;SDS011;1466;48.778;9.166;2022-07-29T01:24:56;13.93;;;8.73;;
2912;SDS011;1466;48.778;9.166;2022-07-29T01:30:03;13.30;;;8.77;;
2912;SDS011;1466;48.778;9.166;2022-07-29T01:32:29;11.43;;;8.50;;
2912;SDS011;1466;48.778;9.166;2022-07-29T01:37:32;14.03;;;8.20;;
2912;SDS011;1466;48.778;9.166;2022-07-29T01:42:52;13.63;;;8.97;;
2912;SDS011;1466;48.778;9.166;2022-07-29T01:45:40;11.73;;;8.57;;
2912;SDS011;1466;48.778;9.166;2022-07-29T01:53:17;15.53;;;8.47;;
2912;SDS011;1466;48.778;9.166;2022-07-29T01:55:50;10.30;;;7.30;;
2912;SDS011;1466;48.778;9.166;2022-07-29T01:58:17;12.23;;;8.17;;
2912;SDS011;1466;48.778;9.166;2022-07-29T02:00:46;12.47;;;7.93;;
2912;SDS011;1466;48.778;9.166;2022-07-29T02:03:12;10.83;;;8.03;;
2912;SDS011;1466;48.778;9.166;2022-07-29T02:05:40;10.70;;;7.70;;
2912;SDS011;1466;48.778;9.166;2022-07-29T02:08:08;15.80;;;9.23;;
2912;SDS011;1466;48.778;9.166;2022-07-29T02:10:35;16.97;;;9.33;;
2912;SDS011;1466;48.778;9.166;2022-07-29T02:13:03;12.43;;;7.80;;
2912;SDS011;1466;48.778;9.166;2022-07-29T02:15:31;16.40;;;8.67;;
2912;SDS011;1466;48.778;9.166;2022-07-29T02:18:04;14.30;;;8.93;;
2912;SDS011;1466;48.778;9.166;2022-07-29T02:20:33;20.53;;;9.40;;
2912;SDS011;1466;48.778;9.166;2022-07-29T02:22:59;13.57;;;8.43;;
2912;SDS011;1466;48.778;9.166;2022-07-29T02:25:27;13.93;;;8.50;;
2912;SDS011;1466;48.778;9.166;2022-07-29T02:27:54;16.10;;;8.40;;
2912;SDS011;1466;48.778;9.166;2022-07-29T02:30:21;18.33;;;8.87;;
2912;SDS011;1466;48.778;9.166;2022-07-29T02:32:48;10.97;;;7.80;;
2912;SDS011;1466;48.778;9.166;2022-07-29T02:35:16;8.73;;;7.70;;
2912;SDS011;1466;48.778;9.166;2022-07-29T02:37:43;9.80;;;7.47;;
2912;SDS011;1466;48.778;9.166;2022-07-29T02:40:30;36.17;;;11.67;;
2912;SDS011;1466;48.778;9.166;2022-07-29T02:42:57;9.93;;;7.90;;
2912;SDS011;1466;48.778;9.166;2022-07-29T02:45:24;16.57;;;8.37;;
2912;SDS011;1466;48.778;9.166;2022-07-29T02:47:50;14.83;;;8.30;;
2912;SDS011;1466;48.778;9.166;2022-07-29T02:50:20;9.10;;;6.47;;
2912;SDS011;1466;48.778;9.166;2022-07-29T02:52:58;20.60;;;9.60;;
2912;SDS011;1466;48.778;9.166;2022-07-29T02:55:31;13.80;;;8.03;;
2912;SDS011;1466;48.778;9.166;2022-07-29T02:58:28;13.67;;;7.60;;
2912;SDS011;1466;48.778;9.166;2022-07-29T03:01:16;12.00;;;7.60;;
2912;SDS011;1466;48.778;9.166;2022-07-29T03:03:49;21.50;;;8.37;;
2912;SDS011;1466;48.778;9.166;2022-07-29T03:06:17;9.97;;;7.27;;
2912;SDS011;1466;48.778;9.166;2022-07-29T03:08:44;10.70;;;7.57;;
2912;SDS011;1466;48.778;9.166;2022-07-29T03:11:10;13.70;;;7.73;;
2912;SDS011;1466;48.778;9.166;2022-07-29T03:13:39;11.73;;;7.30;;
2912;SDS011;1466;48.778;9.166;2022-07-29T03:16:05;15.03;;;8.03;;
2912;SDS011;1466;48.778;9.166;2022-07-29T03:18:33;16.20;;;8.40;;
2912;SDS011;1466;48.778;9.166;2022-07-29T03:20:59;19.70;;;9.03;;
2912;SDS011;1466;48.778;9.166;2022-07-29T03:23:25;13.10;;;7.80;;
2912;SDS011;1466;48.778;9.166;2022-07-29T03:25:52;11.93;;;8.13;;
2912;SDS011;1466;48.778;9.166;2022-07-29T03:28:19;16.43;;;7.73;;
2912;SDS011;1466;48.778;9.166;2022-07-29T03:30:46;15.47;;;7.73;;
2912;SDS011;1466;48.778;9.166;2022-07-29T03:33:11;11.70;;;7.60;;
2912;SDS011;1466;48.778;9.166;2022-07-29T03:35:37;13.60;;;8.00;;
2912;SDS011;1466;48.778;9.166;2022-07-29T03:38:03;13.90;;;7.83;;
2912;SDS011;1466;48.778;9.166;2022-07-29T03:40:38;17.83;;;8.80;;
2912;SDS011;1466;48.778;9.166;2022-07-29T03:43:09;11.37;;;7.67;;
2912;SDS011;1466;48.778;9.166;2022-07-29T03:45:36;17.90;;;8.60;;
2912;SDS011;1466;48.778;9.166;2022-07-29T03:48:07;17.03;;;8.73;;
2912;SDS011;1466;48.778;9.166;2022-07-29T03:50:35;21.30;;;9.10;;
2912;SDS011;1466;48.778;9.166;2022-07-29T03:53:01;15.00;;;8.70;;
2912;SDS011;1466;48.778;9.166;2022-07-29T03:55:28;16.57;;;8.63;;
2912;SDS011;1466;48.778;9.166;2022-07-29T03:57:56;15.63;;;8.03;;
2912;SDS011;1466;48.778;9.166;2022-07-29T04:00:23;19.17;;;9.50;;
2912;SDS011;1466;48.778;9.166;2022-07-29T04:02:50;13.60;;;8.40;;
2912;SDS011;1466;48.778;9.166;2022-07-29T04:05:17;13.47;;;8.17;;
2912;SDS011;1466;48.778;9.166;2022-07-29T04:07:44;12.43;;;8.97;;
2912;SDS011;1466;48.778;9.166;2022-07-29T04:10:10;18.80;;;8.90;;
2912;SDS011;1466;48.778;9.166;2022-07-29T04:12:36;10.33;;;7.30;;
2912;SDS011;1466;48.778;9.166;2022-07-29T04:15:03;16.63;;;8.37;;
2912;SDS011;1466;48.778;9.166;2022-07-29T04:17:29;12.23;;;7.30;;
2912;SDS011;1466;48.778;9.166;2022-07-29T04:19:54;19.67;;;9.10;;
2912;SDS011;1466;48.778;9.166;2022-07-29T04:22:20;13.00;;;8.40;;
2912;SDS011;1466;48.778;9.166;2022-07-29T04:24:45;19.00;;;7.90;;
2912;SDS011;1466;48.778;9.166;2022-07-29T04:27:11;13.63;;;7.83;;
2912;SDS011;1466;48.778;9.166;2022-07-29T04:29:37;9.53;;;6.60;;
2912;SDS011;1466;48.778;9.166;2022-07-29T04:32:02;20.73;;;9.07;;
2912;SDS011;1466;48.778;9.166;2022-07-29T04:34:28;12.03;;;7.77;;
2912;SDS011;1466;48.778;9.166;2022-07-29T04:36:54;10.53;;;7.20;;
2912;SDS011;1466;48.778;9.166;2022-07-29T04:39:20;23.47;;;9.00;;
2912;SDS011;1466;48.778;9.166;2022-07-29T04:41:46;19.97;;;8.83;;
2912;SDS011;1466;48.778;9.166;2022-07-29T04:44:12;17.70;;;7.67;;
2912;SDS011;1466;48.778;9.166;2022-07-29T04:46:38;22.83;;;9.43;;
2912;SDS011;1466;48.778;9.166;2022-07-29T04:49:03;16.60;;;8.30;;
2912;SDS011;1466;48.778;9.166;2022-07-29T04:51:29;12.60;;;7.07;;
2912;SDS011;1466;48.778;9.166;2022-07-29T04:53:55;20.00;;;8.23;;
2912;SDS011;1466;48.778;9.166;2022-07-29T04:56:21;18.83;;;8.33;;
2912;SDS011;1466;48.778;9.166;2022-07-29T04:58:47;16.50;;;7.63;;
2912;SDS011;1466;48.778;9.166;2022-07-29T05:01:13;13.90;;;7.27;;
2912;SDS011;1466;48.778;9.166;2022-07-29T05:03:39;15.83;;;7.67;;
2912;SDS011;1466;48.778;9.166;2022-07-29T05:06:05;13.40;;;7.37;;
2912;SDS011;1466;48.778;9.166;2022-07-29T05:08:30;20.23;;;8.30;;
2912;SDS011;1466;48.778;9.166;2022-07-29T05:10:56;13.77;;;6.97;;
2912;SDS011;1466;48.778;9.166;2022-07-29T05:13:22;19.13;;;7.87;;
2912;SDS011;1466;48.778;9.166;2022-07-29T05:15:47;12.23;;;7.13;;
2912;SDS011;1466;48.778;9.166;2022-07-29T05:18:13;12.70;;;7.00;;
2912;SDS011;1466;48.778;9.166;2022-07-29T05:20:39;10.80;;;6.60;;
2912;SDS011;1466;48.778;9.166;2022-07-29T05:23:04;20.77;;;8.50;;
2912;SDS011;1466;48.778;9.166;2022-07-29T05:25:30;11.97;;;7.00;;
2912;SDS011;1466;48.778;9.166;2022-07-29T05:27:56;10.27;;;6.70;;
2912;SDS011;1466;48.778;9.166;2022-07-29T05:30:22;18.23;;;7.20;;
2912;SDS011;1466;48.778;9.166;2022-07-29T05:32:47;22.43;;;8.53;;
2912;SDS011;1466;48.778;9.166;2022-07-29T05:35:13;24.33;;;8.70;;
2912;SDS011;1466;48.778;9.166;2022-07-29T05:37:40;22.87;;;8.83;;
2912;SDS011;1466;48.778;9.166;2022-07-29T05:40:06;13.00;;;6.70;;
2912;SDS011;1466;48.778;9.166;2022-07-29T05:42:34;12.97;;;6.67;;
2912;SDS011;1466;48.778;9.166;2022-07-29T05:45:00;15.23;;;7.13;;
2912;SDS011;1466;48.778;9.166;2022-07-29T05:47:26;12.87;;;6.83;;
2912;SDS011;1466;48.778;9.166;2022-07-29T05:49:52;14.47;;;7.07;;
2912;SDS011;1466;48.778;9.166;2022-07-29T05:52:20;14.30;;;7.10;;
2912;SDS011;1466;48.778;9.166;2022-07-29T05:54:46;17.87;;;7.63;;
2912;SDS011;1466;48.778;9.166;2022-07-29T05:57:15;10.33;;;6.20;;
2912;SDS011;1466;48.778;9.166;2022-07-29T05:59:45;11.50;;;6.60;;
2912;SDS011;1466;48.778;9.166;2022-07-29T06:02:11;11.47;;;7.00;;
2912;SDS011;1466;48.778;9.166;2022-07-29T06:04:37;6.37;;;5.60;;
2912;SDS011;1466;48.778;9.166;2022-07-29T06:07:02;10.77;;;6.50;;
2912;SDS011;1466;48.778;9.166;2022-07-29T06:09:28;8.87;;;6.23;;
2912;SDS011;1466;48.778;9.166;2022-07-29T06:11:54;16.23;;;7.60;;
2912;SDS011;1466;48.778;9.166;2022-07-29T06:14:20;14.97;;;7.13;;
2912;SDS011;1466;48.778;9.166;2022-07-29T06:16:45;15.13;;;7.37;;
2912;SDS011;1466;48.778;9.166;2022-07-29T06:19:11;16.73;;;7.73;;
2912;SDS011;1466;48.778;9.166;2022-07-29T06:21:41;19.70;;;8.17;;
2912;SDS011;1466;48.778;9.166;2022-07-29T06:24:07;20.27;;;8.90;;
2912;SDS011;1466;48.778;9.166;2022-07-29T06:26:33;19.60;;;8.30;;
2912;SDS011;1466;48.778;9.166;2022-07-29T06:28:59;15.93;;;7.20;;
2912;SDS011;1466;48.778;9.166;2022-07-29T06:31:24;11.17;;;6.70;;
2912;SDS011;1466;48.778;9.166;2022-07-29T06:33:50;15.97;;;7.43;;
2912;SDS011;1466;48.778;9.166;2022-07-29T06:36:15;17.13;;;8.07;;
2912;SDS011;1466;48.778;9.166;2022-07-29T06:38:41;15.20;;;8.10;;
2912;SDS011;1466;48.778;9.166;2022-07-29T06:41:07;13.37;;;7.30;;
2912;SDS011;1466;48.778;9.166;2022-07-29T06:43:38;23.10;;;9.83;;
2912;SDS011;1466;48.778;9.166;2022-07-29T06:46:07;13.70;;;8.00;;
2912;SDS011;1466;48.778;9.166;2022-07-29T06:48:34;15.87;;;8.13;;
2912;SDS011;1466;48.778;9.166;2022-07-29T06:51:01;18.30;;;8.60;;
2912;SDS011;1466;48.778;9.166;2022-07-29T06:53:28;15.83;;;7.43;;
2912;SDS011;1466;48.778;9.166;2022-07-29T06:55:54;18.17;;;8.27;;
2912;SDS011;1466;48.778;9.166;2022-07-29T06:58:20;10.20;;;7.20;;
2912;SDS011;1466;48.778;9.166;2022-07-29T07:00:46;20.47;;;8.60;;
2912;SDS011;1466;48.778;9.166;2022-07-29T07:03:13;14.60;;;8.37;;
2912;SDS011;1466;48.778;9.166;2022-07-29T07:05:39;15.43;;;7.90;;
2912;SDS011;1466;48.778;9.166;2022-07-29T07:08:05;17.43;;;8.17;;
2912;SDS011;1466;48.778;9.166;2022-07-29T07:10:32;21.97;;;8.50;;
2912;SDS011;1466;48.778;9.166;2022-07-29T07:12:58;18.13;;;9.00;;
2912;SDS011;1466;48.778;9.166;2022-07-29T07:15:24;19.50;;;9.00;;
2912;SDS011;1466;48.778;9.166;2022-07-29T07:17:49;17.63;;;8.27;;
2912;SDS011;1466;48.778;9.166;2022-07-29T07:20:15;15.37;;;7.83;;
2912;SDS011;1466;48.778;9.166;2022-07-29T07:22:42;19.73;;;9.00;;
2912;SDS011;1466;48.778;9.166;2022-07-29T07:25:07;15.57;;;8.90;;
2912;SDS011;1466;48.778;9.166;2022-07-29T07:27:34;19.50;;;9.30;;
2912;SDS011;1466;48.778;9.166;2022-07-29T07:30:00;12.50;;;7.70;;
2912;SDS011;1466;48.778;9.166;2022-07-29T07:32:26;15.13;;;7.90;;
2912;SDS011;1466;48.778;9.166;2022-07-29T07:34:51;17.73;;;8.70;;
2912;SDS011;1466;48.778;9.166;2022-07-29T07:37:17;24.13;;;9.33;;
2912;SDS011;1466;48.778;9.166;2022-07-29T07:39:45;12.77;;;7.27;;
2912;SDS011;1466;48.778;9.166;2022-07-29T07:42:11;13.53;;;8.67;;
2912;SDS011;1466;48.778;9.166;2022-07-29T07:44:38;15.63;;;8.50;;
2912;SDS011;1466;48.778;9.166;2022-07-29T07:47:04;21.10;;;10.13;;
2912;SDS011;1466;48.778;9.166;2022-07-29T07:49:30;19.23;;;8.93;;
2912;SDS011;1466;48.778;9.166;2022-07-29T07:51:56;24.67;;;9.97;;
2912;SDS011;1466;48.778;9.166;2022-07-29T07:54:21;25.20;;;8.10;;
2912;SDS011;1466;48.778;9.166;2022-07-29T07:56:47;13.70;;;9.03;;
2912;SDS011;1466;48.778;9.166;2022-07-29T07:59:16;15.00;;;9.00;;
2912;SDS011;1466;48.778;9.166;2022-07-29T08:01:41;14.93;;;8.50;;
2912;SDS011;1466;48.778;9.166;2022-07-29T08:04:07;14.23;;;8.97;;
2912;SDS011;1466;48.778;9.166;2022-07-29T08:06:33;11.53;;;8.70;;
2912;SDS011;1466;48.778;9.166;2022-07-29T08:09:05;17.80;;;9.50;;
2912;SDS011;1466;48.778;9.166;2022-07-29T08:11:31;25.17;;;10.60;;
2912;SDS011;1466;48.778;9.166;2022-07-29T08:13:56;13.67;;;8.57;;
2912;SDS011;1466;48.778;9.166;2022-07-29T08:16:22;13.23;;;7.90;;
2912;SDS011;1466;48.778;9.166;2022-07-29T08:18:50;15.90;;;8.90;;
2912;SDS011;1466;48.778;9.166;2022-07-29T08:21:17;20.73;;;9.97;;
2912;SDS011;1466;48.778;9.166;2022-07-29T08:23:46;22.23;;;10.90;;
2912;SDS011;1466;48.778;9.166;2022-07-29T08:26:14;17.00;;;9.50;;
2912;SDS011;1466;48.778;9.166;2022-07-29T08:28:41;24.00;;;10.60;;
2912;SDS011;1466;48.778;9.166;2022-07-29T08:31:11;11.97;;;8.70;;
2912;SDS011;1466;48.778;9.166;2022-07-29T08:33:37;13.97;;;8.63;;
2912;SDS011;1466;48.778;9.166;2022-07-29T08:36:03;14.00;;;9.97;;
2912;SDS011;1466;48.778;9.166;2022-07-29T08:38:29;10.47;;;7.73;;
2912;SDS011;1466;48.778;9.166;2022-07-29T08:40:55;16.53;;;9.30;;
2912;SDS011;1466;48.778;9.166;2022-07-29T08:43:21;12.03;;;9.07;;
2912;SDS011;1466;48.778;9.166;2022-07-29T08:45:48;8.63;;;7.80;;
2912;SDS011;1466;48.778;9.166;2022-07-29T08:48:16;12.70;;;8.60;;
2912;SDS011;1466;48.778;9.166;2022-07-29T08:50:46;24.37;;;10.90;;
2912;SDS011;1466;48.778;9.166;2022-07-29T08:53:14;12.07;;;9.03;;
2912;SDS011;1466;48.778;9.166;2022-07-29T08:55:46;22.47;;;10.00;;
2912;SDS011;1466;48.778;9.166;2022-07-29T08:58:13;18.10;;;9.13;;
2912;SDS011;1466;48.778;9.166;2022-07-29T09:00:41;15.53;;;8.50;;
2912;SDS011;1466;48.778;9.166;2022-07-29T09:03:08;20.63;;;10.13;;
2912;SDS011;1466;48.778;9.166;2022-07-29T09:05:36;16.53;;;9.03;;
2912;SDS011;1466;48.778;9.166;2022-07-29T09:08:02;19.10;;;10.30;;
2912;SDS011;1466;48.778;9.166;2022-07-29T09:10:29;16.77;;;9.87;;
2912;SDS011;1466;48.778;9.166;2022-07-29T09:12:56;14.80;;;9.20;;
2912;SDS011;1466;48.778;9.166;2022-07-29T09:15:22;9.80;;;7.33;;
2912;SDS011;1466;48.778;9.166;2022-07-29T09:17:48;22.47;;;9.03;;
2912;SDS011;1466;48.778;9.166;2022-07-29T09:20:15;16.07;;;9.80;;
2912;SDS011;1466;48.778;9.166;2022-07-29T09:22:43;11.83;;;8.60;;
2912;SDS011;1466;48.778;9.166;2022-07-29T09:25:13;14.50;;;9.53;;
2912;SDS011;1466;48.778;9.166;2022-07-29T09:28:04;13.27;;;9.37;;
2912;SDS011;1466;48.778;9.166;2022-07-29T09:30:31;22.07;;;11.33;;
2912;SDS011;1466;48.778;9.166;2022-07-29T09:33:02;12.37;;;9.70;;
2912;SDS011;1466;48.778;9.166;2022-07-29T09:35:28;12.93;;;9.43;;
2912;SDS011;1466;48.778;9.166;2022-07-29T09:37:55;13.80;;;10.87;;
2912;SDS011;1466;48.778;9.166;2022-07-29T09:40:25;18.83;;;10.00;;
2912;SDS011;1466;48.778;9.166;2022-07-29T09:42:52;14.13;;;9.30;;
2912;SDS011;1466;48.778;9.166;2022-07-29T09:45:32;16.60;;;9.67;;
2912;SDS011;1466;48.778;9.166;2022-07-29T09:47:59;15.17;;;9.50;;
2912;SDS011;1466;48.778;9.166;2022-07-29T09:50:38;23.23;;;10.10;;
2912;SDS011;1466;48.778;9.166;2022-07-29T09:53:05;12.87;;;9.47;;
2912;SDS011;1466;48.778;9.166;2022-07-29T09:55:30;15.63;;;10.73;;
2912;SDS011;1466;48.778;9.166;2022-07-29T09:58:14;14.53;;;10.33;;
2912;SDS011;1466;48.778;9.166;2022-07-29T10:00:41;16.30;;;10.07;;
2912;SDS011;1466;48.778;9.166;2022-07-29T10:03:08;22.23;;;10.20;;
2912;SDS011;1466;48.778;9.166;2022-07-29T10:05:34;12.87;;;10.10;;
2912;SDS011;1466;48.778;9.166;2022-07-29T10:07:59;16.10;;;9.10;;
2912;SDS011;1466;48.778;9.166;2022-07-29T10:12:54;17.30;;;9.60;;
2912;SDS011;1466;48.778;9.166;2022-07-29T10:15:22;20.87;;;10.23;;
2912;SDS011;1466;48.778;9.166;2022-07-29T10:17:50;9.63;;;7.97;;
2912;SDS011;1466;48.778;9.166;2022-07-29T10:20:17;17.63;;;10.27;;
2912;SDS011;1466;48.778;9.166;2022-07-29T10:22:43;19.23;;;9.37;;
2912;SDS011;1466;48.778;9.166;2022-07-29T10:25:11;11.60;;;8.73;;
2912;SDS011;1466;48.778;9.166;2022-07-29T10:27:38;15.27;;;9.10;;
2912;SDS011;1466;48.778;9.166;2022-07-29T10:30:04;15.23;;;10.60;;
2912;SDS011;1466;48.778;9.166;2022-07-29T10:43:27;17.40;;;10.13;;
2912;SDS011;1466;48.778;9.166;2022-07-29T10:45:56;18.73;;;12.10;;
2912;SDS011;1466;48.778;9.166;2022-07-29T10:48:24;16.73;;;10.30;;
2912;SDS011;1466;48.778;9.166;2022-07-29T10:53:24;22.83;;;11.30;;
2912;SDS011;1466;48.778;9.166;2022-07-29T10:55:50;20.10;;;11.63;;
2912;SDS011;1466;48.778;9.166;2022-07-29T10:58:17;26.57;;;13.10;;
2912;SDS011;1466;48.778;9.166;2022-07-29T11:00:52;17.60;;;11.03;;
2912;SDS011;1466;48.778;9.166;2022-07-29T11:06:06;27.27;;;14.67;;
2912;SDS011;1466;48.778;9.166;2022-07-29T11:08:32;27.20;;;12.10;;
2912;SDS011;1466;48.778;9.166;2022-07-29T11:16:18;25.27;;;14.40;;
2912;SDS011;1466;48.778;9.166;2022-07-29T11:21:35;23.63;;;13.60;;
2912;SDS011;1466;48.778;9.166;2022-07-29T11:24:15;31.53;;;13.40;;
2912;SDS011;1466;48.778;9.166;2022-07-29T11:30:04;22.80;;;15.33;;
2912;SDS011;1466;48.778;9.166;2022-07-29T11:32:37;24.63;;;16.63;;
2912;SDS011;1466;48.778;9.166;2022-07-29T11:35:12;19.83;;;14.70;;
2912;SDS011;1466;48.778;9.166;2022-07-29T11:37:46;22.03;;;14.03;;
2912;SDS011;1466;48.778;9.166;2022-07-29T11:40:32;31.00;;;16.13;;
2912;SDS011;1466;48.778;9.166;2022-07-29T11:42:58;19.90;;;14.03;;
2912;SDS011;1466;48.778;9.166;2022-07-29T11:45:24;27.30;;;14.83;;
2912;SDS011;1466;48.778;9.166;2022-07-29T11:47:55;24.43;;;13.37;;
2912;SDS011;1466;48.778;9.166;2022-07-29T11:50:28;26.70;;;14.53;;
2912;SDS011;1466;48.778;9.166;2022-07-29T11:52:55;31.53;;;15.33;;
2912;SDS011;1466;48.778;9.166;2022-07-29T11:55:22;18.70;;;12.70;;
2912;SDS011;1466;48.778;9.166;2022-07-29T11:57:56;27.57;;;14.27;;
2912;SDS011;1466;48.778;9.166;2022-07-29T12:00:25;32.87;;;14.27;;
2912;SDS011;1466;48.778;9.166;2022-07-29T12:02:53;23.63;;;12.90;;
2912;SDS011;1466;48.778;9.166;2022-07-29T12:05:19;19.83;;;12.73;;
2912;SDS011;1466;48.778;9.166;2022-07-29T12:07:46;22.87;;;12.80;;
2912;SDS011;1466;48.778;9.166;2022-07-29T12:10:12;18.60;;;10.93;;
2912;SDS011;1466;48.778;9.166;2022-07-29T12:12:38;21.87;;;10.57;;
2912;SDS011;1466;48.778;9.166;2022-07-29T12:15:14;24.80;;;11.37;;
2912;SDS011;1466;48.778;9.166;2022-07-29T12:17:42;20.33;;;10.80;;
2912;SDS011;1466;48.778;9.166;2022-07-29T12:20:08;14.37;;;9.07;;
2912;SDS011;1466;48.778;9.166;2022-07-29T12:22:36;16.17;;;9.50;;
2912;SDS011;1466;48.778;9.166;2022-07-29T12:25:05;17.30;;;9.57;;
2912;SDS011;1466;48.778;9.166;2022-07-29T12:27:33;13.73;;;9.37;;
2912;SDS011;1466;48.778;9.166;2022-07-29T12:29:59;12.60;;;9.27;;
2912;SDS011;1466;48.778;9.166;2022-07-29T12:32:34;26.50;;;11.87;;
2912;SDS011;1466;48.778;9.166;2022-07-29T12:35:06;22.20;;;11.33;;
2912;SDS011;1466;48.778;9.166;2022-07-29T12:37:38;20.90;;;10.67;;
2912;SDS011;1466;48.778;9.166;2022-07-29T12:40:06;17.70;;;10.67;;
2912;SDS011;1466;48.778;9.166;2022-07-29T12:42:33;15.00;;;9.60;;
2912;SDS011;1466;48.778;9.166;2022-07-29T12:44:59;23.73;;;10.20;;
2912;SDS011;1466;48.778;9.166;2022-07-29T12:47:25;24.30;;;11.43;;
2912;SDS011;1466;48.778;9.166;2022-07-29T12:49:51;24.67;;;9.67;;
2912;SDS011;1466;48.778;9.166;2022-07-29T12:52:34;20.00;;;10.10;;
2912;SDS011;1466;48.778;9.166;2022-07-29T12:55:00;19.07;;;10.47;;
2912;SDS011;1466;48.778;9.166;2022-07-29T12:57:26;16.83;;;9.60;;
2912;SDS011;1466;48.778;9.166;2022-07-29T13:02:36;12.93;;;9.20;;
2912;SDS011;1466;48.778;9.166;2022-07-29T13:05:04;22.73;;;10.23;;
2912;SDS011;1466;48.778;9.166;2022-07-29T13:07:31;25.50;;;10.73;;
2912;SDS011;1466;48.778;9.166;2022-07-29T13:10:09;21.03;;;10.23;;
2912;SDS011;1466;48.778;9.166;2022-07-29T13:12:35;16.50;;;9.50;;
2912;SDS011;1466;48.778;9.166;2022-07-29T13:15:11;23.37;;;11.23;;
2912;SDS011;1466;48.778;9.166;2022-07-29T13:17:41;14.13;;;10.37;;
2912;SDS011;1466;48.778;9.166;2022-07-29T13:20:09;20.07;;;10.90;;
2912;SDS011;1466;48.778;9.166;2022-07-29T13:22:39;21.20;;;12.97;;
2912;SDS011;1466;48.778;9.166;2022-07-29T13:25:07;24.20;;;12.67;;
2912;SDS011;1466;48.778;9.166;2022-07-29T13:27:34;17.13;;;11.80;;
2912;SDS011;1466;48.778;9.166;2022-07-29T13:30:07;28.10;;;13.63;;
2912;SDS011;1466;48.778;9.166;2022-07-29T13:32:34;20.33;;;12.53;;
2912;SDS011;1466;48.778;9.166;2022-07-29T13:35:02;22.23;;;11.90;;
2912;SDS011;1466;48.778;9.166;2022-07-29T13:37:29;20.77;;;12.53;;
2912;SDS011;1466;48.778;9.166;2022-07-29T13:39:57;11.27;;;10.13;;
2912;SDS011;1466;48.778;9.166;2022-07-29T13:42:24;17.97;;;12.10;;
2912;SDS011;1466;48.778;9.166;2022-07-29T13:44:51;16.03;;;11.80;;
2912;SDS011;1466;48.778;9.166;2022-07-29T13:47:20;20.93;;;11.40;;
2912;SDS011;1466;48.778;9.166;2022-07-29T13:49:46;18.30;;;12.00;;
2912;SDS011;1466;48.778;9.166;2022-07-29T13:52:12;14.50;;;9.57;;
2912;SDS011;1466;48.778;9.166;2022-07-29T13:54:38;21.83;;;13.00;;
2912;SDS011;1466;48.778;9.166;2022-07-29T13:57:04;19.63;;;11.70;;
2912;SDS011;1466;48.778;9.166;2022-07-29T13:59:30;30.87;;;12.97;;
2912;SDS011;1466;48.778;9.166;2022-07-29T14:01:55;16.33;;;10.77;;
2912;SDS011;1466;48.778;9.166;2022-07-29T14:04:21;21.43;;;10.30;;
2912;SDS011;1466;48.778;9.166;2022-07-29T14:06:48;12.13;;;9.90;;
2912;SDS011;1466;48.778;9.166;2022-07-29T14:09:14;31.77;;;13.00;;
2912;SDS011;1466;48.778;9.166;2022-07-29T14:11:39;22.23;;;12.57;;
2912;SDS011;1466;48.778;9.166;2022-07-29T14:14:05;24.80;;;11.73;;
2912;SDS011;1466;48.778;9.166;2022-07-29T14:16:31;11.57;;;9.67;;
2912;SDS011;1466;48.778;9.166;2022-07-29T14:18:57;18.03;;;10.03;;
2912;SDS011;1466;48.778;9.166;2022-07-29T14:21:22;21.60;;;12.13;;
2912;SDS011;1466;48.778;9.166;2022-07-29T14:23:48;23.70;;;11.60;;
2912;SDS011;1466;48.778;9.166;2022-07-29T14:26:14;31.70;;;13.27;;
2912;SDS011;1466;48.778;9.166;2022-07-29T14:28:39;23.70;;;12.27;;
2912;SDS011;1466;48.778;9.166;2022-07-29T14:31:05;21.13;;;12.70;;
2912;SDS011;1466;48.778;9.166;2022-07-29T14:33:31;23.50;;;14.30;;
2912;SDS011;1466;48.778;9.166;2022-07-29T14:35:57;18.37;;;12.70;;
2912;SDS011;1466;48.778;9.166;2022-07-29T14:38:22;19.50;;;11.47;;
2912;SDS011;1466;48.778;9.166;2022-07-29T14:40:48;20.97;;;12.23;;
2912;SDS011;1466;48.778;9.166;2022-07-29T14:43:14;18.53;;;11.70;;
2912;SDS011;1466;48.778;9.166;2022-07-29T14:45:40;18.20;;;10.50;;
2912;SDS011;1466;48.778;9.166;2022-07-29T14:48:06;15.20;;;10.07;;
2912;SDS011;1466;48.778;9.166;2022-07-29T14:50:32;34.57;;;14.20;;
2912;SDS011;1466;48.778;9.166;2022-07-29T14:52:58;23.53;;;12.17;;
2912;SDS011;1466;48.778;9.166;2022-07-29T14:55:24;22.47;;;10.10;;
2912;SDS011;1466;48.778;9.166;2022-07-29T14:57:50;19.53;;;10.73;;
2912;SDS011;1466;48.778;9.166;2022-07-29T15:00:16;16.67;;;10.03;;
2912;SDS011;1466;48.778;9.166;2022-07-29T15:02:42;17.63;;;10.23;;
2912;SDS011;1466;48.778;9.166;2022-07-29T15:05:07;19.10;;;10.53;;
2912;SDS011;1466;48.778;9.166;2022-07-29T15:07:33;22.47;;;12.47;;
2912;SDS011;1466;48.778;9.166;2022-07-29T15:09:59;21.03;;;12.00;;
2912;SDS011;1466;48.778;9.166;2022-07-29T15:12:24;16.27;;;10.37;;
2912;SDS011;1466;48.778;9.166;2022-07-29T15:14:50;18.50;;;11.27;;
2912;SDS011;1466;48.778;9.166;2022-07-29T15:17:16;22.73;;;12.07;;
2912;SDS011;1466;48.778;9.166;2022-07-29T15:19:41;26.27;;;12.60;;
2912;SDS011;1466;48.778;9.166;2022-07-29T15:22:07;18.30;;;11.93;;
2912;SDS011;1466;48.778;9.166;2022-07-29T15:24:32;19.10;;;11.50;;
2912;SDS011;1466;48.778;9.166;2022-07-29T15:26:59;18.70;;;11.30;;
2912;SDS011;1466;48.778;9.166;2022-07-29T15:29:24;18.73;;;10.63;;
2912;SDS011;1466;48.778;9.166;2022-07-29T15:31:50;22.03;;;11.07;;
2912;SDS011;1466;48.778;9.166;2022-07-29T15:34:16;21.87;;;11.47;;
2912;SDS011;1466;48.778;9.166;2022-07-29T15:36:41;15.57;;;10.60;;
2912;SDS011;1466;48.778;9.166;2022-07-29T15:39:07;15.20;;;11.20;;
2912;SDS011;1466;48.778;9.166;2022-07-29T15:41:34;23.87;;;11.67;;
2912;SDS011;1466;48.778;9.166;2022-07-29T15:43:59;17.43;;;11.03;;
2912;SDS011;1466;48.778;9.166;2022-07-29T15:46:25;18.10;;;11.40;;